createdAt,value
2018-04-27T00:00:48.182Z,2.17
2018-04-27T00:03:18.971Z,2.80
2018-04-27T00:05:49.747Z,2.50
2018-04-27T00:08:20.506Z,2.40
2018-04-27T00:10:51.300Z,2.13
2018-04-27T00:13:22.088Z,2.90
2018-04-27T00:15:52.869Z,3.07
2018-04-27T00:18:23.667Z,3.47
2018-04-27T00:20:54.471Z,2.63
2018-04-27T00:23:25.235Z,2.60
2018-04-27T00:25:56.027Z,2.83
2018-04-27T00:28:26.819Z,2.73
2018-04-27T00:30:57.604Z,2.50
2018-04-27T00:33:28.391Z,3.27
2018-04-27T00:35:59.181Z,3.10
2018-04-27T00:38:31.936Z,2.63
2018-04-27T00:41:02.741Z,2.80
2018-04-27T00:43:33.513Z,2.63
2018-04-27T00:46:04.311Z,3.27
2018-04-27T00:48:35.160Z,3.30
2018-04-27T00:51:05.965Z,2.50
2018-04-27T00:53:36.761Z,2.57
2018-04-27T00:56:07.558Z,3.27
2018-04-27T00:58:38.344Z,2.90
2018-04-27T01:01:09.138Z,2.90
2018-04-27T01:03:39.935Z,2.73
2018-04-27T01:06:10.723Z,3.20
2018-04-27T01:08:41.500Z,2.53
2018-04-27T01:11:12.291Z,3.20
2018-04-27T01:13:43.124Z,2.83
2018-04-27T01:16:13.923Z,2.80
2018-04-27T01:18:44.755Z,3.10
2018-04-27T01:21:15.543Z,3.80
2018-04-27T01:23:46.325Z,3.33
2018-04-27T01:26:17.180Z,3.50
2018-04-27T01:28:47.962Z,3.00
2018-04-27T01:31:18.783Z,3.00
2018-04-27T01:33:49.585Z,2.83
2018-04-27T01:36:20.368Z,3.10
2018-04-27T01:38:51.133Z,2.87
2018-04-27T01:41:21.964Z,3.53
2018-04-27T01:43:52.744Z,3.00
2018-04-27T01:46:23.552Z,2.80
2018-04-27T01:48:54.327Z,2.60
2018-04-27T01:51:25.107Z,3.83
2018-04-27T01:53:55.920Z,2.70
2018-04-27T01:56:26.743Z,2.40
2018-04-27T01:58:57.539Z,2.43
2018-04-27T02:01:28.357Z,2.40
2018-04-27T02:03:59.152Z,2.20
2018-04-27T02:06:29.958Z,2.53
2018-04-27T02:09:00.770Z,2.87
2018-04-27T02:11:31.600Z,2.50
2018-04-27T02:14:02.379Z,2.77
2018-04-27T02:16:33.168Z,2.33
2018-04-27T02:19:03.960Z,2.93
2018-04-27T02:21:34.750Z,2.40
2018-04-27T02:24:05.516Z,3.43
2018-04-27T02:26:36.305Z,4.13
2018-04-27T02:29:07.077Z,3.10
2018-04-27T02:31:37.879Z,3.17
2018-04-27T02:34:08.655Z,2.87
2018-04-27T02:36:39.457Z,2.80
2018-04-27T02:39:10.241Z,2.63
2018-04-27T02:41:41.060Z,2.93
2018-04-27T02:44:11.839Z,2.93
2018-04-27T02:46:42.619Z,2.40
2018-04-27T02:49:13.391Z,3.00
2018-04-27T02:51:44.180Z,3.23
2018-04-27T02:54:14.956Z,2.63
2018-04-27T02:56:45.769Z,2.63
2018-04-27T02:59:16.563Z,2.57
2018-04-27T03:01:47.360Z,2.80
2018-04-27T03:04:18.195Z,2.90
2018-04-27T03:06:48.925Z,3.07
2018-04-27T03:09:19.725Z,2.50
2018-04-27T03:11:50.520Z,2.57
2018-04-27T03:14:21.295Z,2.70
2018-04-27T03:16:52.064Z,2.50
2018-04-27T03:19:22.836Z,2.50
2018-04-27T03:21:53.619Z,2.20
2018-04-27T03:24:24.376Z,3.07
2018-04-27T03:26:55.167Z,2.47
2018-04-27T03:29:25.938Z,3.33
2018-04-27T03:31:56.708Z,2.60
2018-04-27T03:34:27.464Z,3.20
2018-04-27T03:36:58.251Z,3.93
2018-04-27T03:39:29.039Z,2.93
2018-04-27T03:41:59.851Z,2.60
2018-04-27T03:44:30.660Z,2.50
2018-04-27T03:47:01.468Z,2.27
2018-04-27T03:49:32.244Z,2.60
2018-04-27T03:52:03.076Z,2.20
2018-04-27T03:54:33.851Z,2.87
2018-04-27T03:57:04.632Z,2.50
2018-04-27T03:59:47.664Z,2.30
2018-04-27T04:02:30.789Z,2.35
2018-04-27T04:05:13.732Z,2.45
2018-04-27T04:07:44.540Z,2.42
2018-04-27T04:10:15.305Z,2.70
2018-04-27T04:12:46.109Z,2.90
2018-04-27T04:15:16.886Z,2.47
2018-04-27T04:17:47.701Z,2.50
2018-04-27T04:20:18.475Z,2.70
2018-04-27T04:22:49.263Z,2.83
2018-04-27T04:25:20.041Z,2.70
2018-04-27T04:27:50.850Z,2.50
2018-04-27T04:30:21.607Z,3.30
2018-04-27T04:32:52.425Z,2.77
2018-04-27T04:35:23.281Z,3.33
2018-04-27T04:37:54.074Z,2.90
2018-04-27T04:40:24.836Z,3.20
2018-04-27T04:42:55.634Z,2.57
2018-04-27T04:45:26.401Z,2.60
2018-04-27T04:47:57.183Z,2.40
2018-04-27T04:50:27.995Z,3.07
2018-04-27T04:52:58.780Z,2.80
2018-04-27T04:55:29.547Z,2.90
2018-04-27T04:58:00.358Z,3.00
2018-04-27T05:00:31.141Z,2.90
2018-04-27T05:03:01.983Z,3.00
2018-04-27T05:05:32.719Z,2.90
2018-04-27T05:08:03.558Z,2.67
2018-04-27T05:10:34.432Z,3.20
2018-04-27T05:13:05.172Z,3.00
2018-04-27T05:15:35.948Z,2.97
2018-04-27T05:18:19.233Z,2.63
2018-04-27T05:20:50.051Z,2.37
2018-04-27T05:23:20.855Z,2.53
2018-04-27T05:25:51.639Z,3.03
2018-04-27T05:28:22.413Z,2.60
2018-04-27T05:30:53.215Z,2.90
2018-04-27T05:33:24.014Z,3.07
2018-04-27T05:35:54.791Z,2.63
2018-04-27T05:38:25.588Z,2.90
2018-04-27T05:40:56.380Z,2.63
2018-04-27T05:43:27.163Z,2.47
2018-04-27T05:45:57.985Z,2.90
2018-04-27T05:48:28.874Z,2.30
2018-04-27T05:51:00.531Z,2.40
2018-04-27T05:53:31.363Z,3.22
2018-04-27T05:56:02.282Z,3.20
2018-04-27T05:58:33.155Z,2.47
2018-04-27T06:01:03.954Z,2.27
2018-04-27T06:03:47.219Z,2.60
2018-04-27T06:06:18.003Z,2.90
2018-04-27T06:08:48.785Z,2.70
2018-04-27T06:11:19.571Z,3.20
2018-04-27T06:13:50.349Z,2.77
2018-04-27T06:16:21.127Z,2.67
2018-04-27T06:18:51.942Z,2.90
2018-04-27T06:21:22.712Z,3.10
2018-04-27T06:23:53.567Z,2.50
2018-04-27T06:26:24.357Z,3.00
2018-04-27T06:28:55.167Z,3.13
2018-04-27T06:31:25.941Z,3.30
2018-04-27T06:33:56.732Z,2.97
2018-04-27T06:36:27.536Z,3.10
2018-04-27T06:38:58.316Z,3.20
2018-04-27T06:41:29.111Z,3.70
2018-04-27T06:43:59.943Z,3.70
2018-04-27T06:46:30.721Z,3.90
2018-04-27T06:49:01.539Z,4.40
2018-04-27T06:51:32.376Z,3.90
2018-04-27T06:54:03.207Z,4.63
2018-04-27T06:56:33.996Z,4.40
2018-04-27T06:59:04.798Z,5.00
2018-04-27T07:01:35.605Z,5.20
2018-04-27T07:04:06.403Z,4.03
2018-04-27T07:06:37.259Z,4.90
2018-04-27T07:09:08.063Z,4.23
2018-04-27T07:11:38.934Z,5.33
2018-04-27T07:14:09.696Z,5.00
2018-04-27T07:16:40.484Z,4.50
2018-04-27T07:19:11.297Z,5.10
2018-04-27T07:21:42.088Z,5.33
2018-04-27T07:24:12.928Z,5.10
2018-04-27T07:26:43.768Z,4.40
2018-04-27T07:29:14.595Z,4.20
2018-04-27T07:31:45.368Z,4.77
2018-04-27T07:34:16.243Z,4.17
2018-04-27T07:36:46.977Z,4.90
2018-04-27T07:39:17.813Z,4.77
2018-04-27T07:41:48.609Z,5.17
2018-04-27T07:44:19.444Z,4.60
2018-04-27T07:46:50.309Z,4.70
2018-04-27T07:49:21.108Z,4.20
2018-04-27T07:51:51.896Z,4.43
2018-04-27T07:54:22.738Z,4.63
2018-04-27T07:56:53.601Z,3.93
2018-04-27T07:59:24.447Z,3.93
2018-04-27T08:01:55.256Z,4.60
2018-04-27T08:04:26.100Z,4.40
2018-04-27T08:06:56.928Z,4.20
2018-04-27T08:09:27.768Z,4.80
2018-04-27T08:11:58.643Z,4.50
2018-04-27T08:14:29.491Z,3.90
2018-04-27T08:17:00.407Z,3.80
2018-04-27T08:19:31.311Z,5.00
2018-04-27T08:22:02.172Z,4.40
2018-04-27T08:24:33.126Z,4.00
2018-04-27T08:27:04.912Z,4.30
2018-04-27T08:29:35.724Z,4.20
2018-04-27T08:32:06.633Z,3.87
2018-04-27T08:34:37.383Z,3.77
2018-04-27T08:37:08.219Z,5.63
2018-04-27T08:39:39.077Z,4.20
2018-04-27T08:42:09.882Z,3.80
2018-04-27T08:44:40.715Z,3.50
2018-04-27T08:47:11.504Z,3.43
2018-04-27T08:49:42.353Z,4.00
2018-04-27T08:52:13.160Z,3.73
2018-04-27T08:54:44.024Z,3.77
2018-04-27T08:57:14.886Z,3.80
2018-04-27T08:59:45.724Z,3.40
2018-04-27T09:02:16.687Z,3.10
2018-04-27T09:04:47.539Z,3.40
2018-04-27T09:07:18.339Z,3.13
2018-04-27T09:09:49.402Z,3.43
2018-04-27T09:12:20.310Z,3.50
2018-04-27T09:14:51.146Z,3.03
2018-04-27T09:17:21.997Z,2.97
2018-04-27T09:19:53.165Z,3.23
2018-04-27T09:22:24.279Z,3.37
2018-04-27T09:24:55.089Z,2.63
2018-04-27T09:27:25.915Z,2.80
2018-04-27T09:29:56.708Z,3.47
2018-04-27T09:32:27.491Z,2.37
2018-04-27T09:34:58.295Z,3.00
2018-04-27T09:37:29.110Z,2.40
2018-04-27T09:40:00.328Z,3.57
2018-04-27T09:42:32.875Z,2.50
2018-04-27T09:45:03.850Z,2.90
2018-04-27T09:47:34.679Z,2.40
2018-04-27T09:50:05.502Z,2.53
2018-04-27T09:52:36.308Z,2.87
2018-04-27T09:55:07.089Z,3.13
2018-04-27T09:57:37.909Z,3.27
2018-04-27T10:00:08.744Z,3.93
2018-04-27T10:02:39.559Z,2.60
2018-04-27T10:05:10.380Z,3.27
2018-04-27T10:07:41.164Z,3.10
2018-04-27T10:10:11.971Z,3.37
2018-04-27T10:12:42.751Z,2.63
2018-04-27T10:15:13.542Z,2.70
2018-04-27T10:17:44.359Z,2.87
2018-04-27T10:20:15.154Z,2.70
2018-04-27T10:22:45.988Z,2.10
2018-04-27T10:25:16.919Z,2.67
2018-04-27T10:27:47.724Z,2.10
2018-04-27T10:30:18.586Z,2.60
2018-04-27T10:32:49.420Z,2.50
2018-04-27T10:35:20.237Z,2.30
2018-04-27T10:37:51.031Z,2.20
2018-04-27T10:40:21.903Z,2.23
2018-04-27T10:42:52.785Z,2.23
2018-04-27T10:45:23.602Z,2.50
2018-04-27T10:47:54.486Z,2.83
2018-04-27T10:50:25.340Z,2.50
2018-04-27T10:52:56.153Z,2.27
2018-04-27T10:55:27.078Z,2.37
2018-04-27T10:57:57.890Z,2.50
2018-04-27T11:00:28.776Z,2.50
2018-04-27T11:02:59.570Z,3.00
2018-04-27T11:05:30.456Z,2.73
2018-04-27T11:08:01.295Z,2.57
2018-04-27T11:10:32.132Z,2.40
2018-04-27T11:13:02.924Z,2.77
2018-04-27T11:15:33.735Z,2.87
2018-04-27T11:18:04.540Z,2.53
2018-04-27T11:20:35.427Z,2.67
2018-04-27T11:23:06.151Z,2.70
2018-04-27T11:25:36.972Z,2.40
2018-04-27T11:28:07.760Z,2.87
2018-04-27T11:30:38.563Z,1.97
2018-04-27T11:33:09.433Z,2.53
2018-04-27T11:35:40.275Z,2.23
2018-04-27T11:38:11.141Z,2.60
2018-04-27T11:40:41.989Z,2.77
2018-04-27T11:43:12.799Z,2.30
2018-04-27T11:45:43.637Z,2.70
2018-04-27T11:48:14.399Z,3.13
2018-04-27T11:50:45.250Z,2.87
2018-04-27T11:53:16.039Z,2.47
2018-04-27T11:55:46.869Z,2.70
2018-04-27T11:58:17.655Z,2.77
2018-04-27T12:00:48.593Z,2.50
2018-04-27T12:03:19.333Z,3.20
2018-04-27T12:05:50.169Z,2.60
2018-04-27T12:08:21.024Z,2.87
2018-04-27T12:10:51.826Z,3.50
2018-04-27T12:13:22.867Z,3.20
2018-04-27T12:15:53.717Z,2.90
2018-04-27T12:18:24.553Z,2.63
2018-04-27T12:20:55.425Z,3.30
2018-04-27T12:23:26.207Z,3.27
2018-04-27T12:25:56.992Z,2.80
2018-04-27T12:28:27.790Z,4.03
2018-04-27T12:30:58.667Z,3.13
2018-04-27T12:33:29.420Z,3.17
2018-04-27T12:36:00.261Z,3.57
2018-04-27T12:38:31.095Z,3.63
2018-04-27T12:41:02.000Z,3.17
2018-04-27T12:43:32.783Z,2.90
2018-04-27T12:46:03.657Z,3.00
2018-04-27T12:48:34.422Z,2.80
2018-04-27T12:51:05.247Z,2.83
2018-04-27T12:53:36.047Z,3.07
2018-04-27T12:56:06.887Z,3.47
2018-04-27T12:58:37.661Z,2.60
2018-04-27T13:01:08.467Z,2.90
2018-04-27T13:03:39.270Z,2.80
2018-04-27T13:06:10.076Z,3.17
2018-04-27T13:08:40.869Z,2.53
2018-04-27T13:11:11.724Z,2.80
2018-04-27T13:13:42.527Z,2.53
2018-04-27T13:16:13.336Z,2.60
2018-04-27T13:18:44.115Z,2.97
2018-04-27T13:21:14.991Z,3.13
2018-04-27T13:23:45.766Z,2.80
2018-04-27T13:26:16.602Z,2.57
2018-04-27T13:28:47.478Z,3.50
2018-04-27T13:31:18.308Z,2.53
2018-04-27T13:33:49.181Z,2.80
2018-04-27T13:36:20.019Z,2.93
2018-04-27T13:38:50.875Z,2.30
2018-04-27T13:41:21.712Z,2.10
2018-04-27T13:43:52.485Z,2.33
2018-04-27T13:46:23.271Z,2.70
2018-04-27T13:48:54.057Z,2.20
2018-04-27T13:51:24.884Z,2.40
2018-04-27T13:53:55.707Z,2.30
2018-04-27T13:56:26.528Z,2.17
2018-04-27T13:58:57.321Z,2.30
2018-04-27T14:01:28.267Z,2.10
2018-04-27T14:03:59.116Z,2.67
2018-04-27T14:06:29.911Z,2.43
2018-04-27T14:09:00.686Z,2.20
2018-04-27T14:11:31.492Z,2.00
2018-04-27T14:14:02.314Z,3.50
2018-04-27T14:16:33.096Z,2.73
2018-04-27T14:19:04.785Z,2.40
2018-04-27T14:21:35.594Z,2.50
2018-04-27T14:24:06.396Z,2.30
2018-04-27T14:26:37.191Z,1.83
2018-04-27T14:29:07.987Z,2.80
2018-04-27T14:31:38.800Z,2.20
2018-04-27T14:34:09.653Z,2.53
2018-04-27T14:36:40.454Z,1.83
2018-04-27T14:39:11.223Z,2.13
2018-04-27T14:41:42.039Z,1.63
2018-04-27T14:44:12.819Z,1.50
2018-04-27T14:46:43.635Z,1.70
2018-04-27T14:49:14.430Z,1.70
2018-04-27T14:51:45.287Z,1.60
2018-04-27T14:54:16.092Z,1.70
2018-04-27T14:56:46.908Z,1.87
2018-04-27T14:59:17.725Z,1.63
2018-04-27T15:01:48.561Z,1.80
2018-04-27T15:04:19.335Z,1.97
2018-04-27T15:06:50.244Z,1.53
2018-04-27T15:09:21.044Z,1.90
2018-04-27T15:11:51.869Z,1.93
2018-04-27T15:14:22.691Z,1.70
2018-04-27T15:16:53.512Z,1.50
2018-04-27T15:19:24.300Z,2.03
2018-04-27T15:21:55.209Z,2.00
2018-04-27T15:24:26.032Z,1.73
2018-04-27T15:26:56.865Z,1.97
2018-04-27T15:29:27.653Z,2.27
2018-04-27T15:31:58.463Z,2.10
2018-04-27T15:34:29.266Z,1.63
2018-04-27T15:37:00.134Z,2.13
2018-04-27T15:39:30.936Z,1.83
2018-04-27T15:42:01.753Z,1.53
2018-04-27T15:44:32.567Z,1.73
2018-04-27T15:50:02.225Z,2.20
2018-04-27T15:52:33.025Z,2.13
2018-04-27T15:55:03.832Z,2.00
2018-04-27T15:57:34.654Z,2.20
2018-04-27T16:00:05.515Z,2.00
2018-04-27T16:02:36.319Z,1.90
2018-04-27T16:05:07.131Z,2.00
2018-04-27T16:07:37.983Z,1.93
2018-04-27T16:10:08.809Z,1.90
2018-04-27T16:12:40.258Z,1.83
2018-04-27T16:15:11.067Z,1.90
2018-04-27T16:17:41.969Z,2.40
2018-04-27T16:20:12.776Z,2.07
2018-04-27T16:22:43.631Z,2.20
2018-04-27T16:25:14.429Z,1.80
2018-04-27T16:27:45.268Z,1.87
2018-04-27T16:30:16.061Z,2.07
2018-04-27T16:32:46.904Z,2.23
2018-04-27T16:35:17.784Z,2.27
2018-04-27T16:37:48.617Z,1.90
2018-04-27T16:40:19.428Z,2.20
2018-04-27T16:42:50.251Z,1.77
2018-04-27T16:45:21.080Z,1.83
2018-04-27T16:47:51.869Z,2.40
2018-04-27T16:50:22.689Z,1.80
2018-04-27T16:52:53.548Z,1.90
2018-04-27T16:55:24.320Z,1.90
2018-04-27T16:57:55.135Z,2.10
2018-04-27T17:00:25.920Z,2.17
2018-04-27T17:02:56.831Z,2.53
2018-04-27T17:05:27.711Z,2.30
2018-04-27T17:07:58.679Z,2.40
2018-04-27T17:10:29.500Z,2.17
2018-04-27T17:13:00.375Z,2.20
2018-04-27T17:15:31.188Z,2.10
2018-04-27T17:18:02.046Z,2.20
2018-04-27T17:20:32.939Z,2.10
2018-04-27T17:23:03.795Z,2.20
2018-04-27T17:25:34.601Z,2.13
2018-04-27T17:28:05.444Z,2.20
2018-04-27T17:30:36.236Z,2.73
2018-04-27T17:33:07.043Z,2.30
2018-04-27T17:35:37.858Z,2.30
2018-04-27T17:38:08.663Z,2.00
2018-04-27T17:40:39.491Z,2.30
2018-04-27T17:43:10.291Z,2.20
2018-04-27T17:45:41.094Z,2.30
2018-04-27T17:48:11.946Z,2.43
2018-04-27T17:50:42.704Z,2.87
2018-04-27T17:53:13.600Z,2.87
2018-04-27T17:55:44.432Z,2.83
2018-04-27T17:58:15.265Z,2.13
2018-04-27T18:00:46.073Z,4.40
2018-04-27T18:03:16.930Z,2.87
2018-04-27T18:05:47.758Z,2.60
2018-04-27T18:08:18.599Z,2.40
2018-04-27T18:10:49.379Z,2.60
2018-04-27T18:13:20.244Z,2.50
2018-04-27T18:15:51.764Z,2.60
2018-04-27T18:18:22.603Z,2.17
2018-04-27T18:20:53.428Z,3.50
2018-04-27T18:23:24.974Z,3.00
2018-04-27T18:25:55.788Z,2.70
2018-04-27T18:28:28.616Z,2.67
2018-04-27T18:30:59.411Z,2.93
2018-04-27T18:33:30.211Z,2.07
2018-04-27T18:36:01.093Z,2.47
2018-04-27T18:38:31.894Z,3.07
2018-04-27T18:41:03.683Z,3.00
2018-04-27T18:43:34.504Z,3.20
2018-04-27T18:46:05.283Z,3.80
2018-04-27T18:48:36.120Z,3.40
2018-04-27T18:51:07.763Z,5.50
2018-04-27T18:53:38.573Z,4.30
2018-04-27T18:56:09.392Z,2.50
2018-04-27T18:58:40.226Z,2.57
2018-04-27T19:01:14.899Z,2.60
2018-04-27T19:03:53.645Z,2.10
2018-04-27T19:06:24.446Z,1.90
2018-04-27T19:08:55.357Z,2.20
2018-04-27T19:11:26.100Z,2.30
2018-04-27T19:13:56.907Z,2.37
2018-04-27T19:16:27.749Z,2.20
2018-04-27T19:18:58.581Z,2.00
2018-04-27T19:21:29.356Z,2.30
2018-04-27T19:24:00.175Z,2.27
2018-04-27T19:26:31.101Z,1.73
2018-04-27T19:29:01.894Z,1.73
2018-04-27T19:31:32.733Z,2.33
2018-04-27T19:34:03.591Z,2.00
2018-04-27T19:36:34.380Z,2.40
2018-04-27T19:39:05.200Z,2.50
2018-04-27T19:41:36.004Z,2.80
2018-04-27T19:44:06.837Z,2.90
2018-04-27T19:46:37.664Z,3.10
2018-04-27T19:49:08.484Z,3.90
2018-04-27T19:51:39.284Z,2.60
2018-04-27T19:54:10.152Z,3.60
2018-04-27T19:56:40.984Z,3.50
2018-04-27T19:59:11.820Z,4.23
2018-04-27T20:01:42.646Z,3.20
2018-04-27T20:04:13.541Z,3.50
2018-04-27T20:06:44.332Z,3.30
2018-04-27T20:09:15.152Z,3.30
2018-04-27T20:11:46.151Z,3.90
2018-04-27T20:14:26.975Z,3.70
2018-04-27T20:17:03.073Z,3.40
2018-04-27T20:19:33.840Z,3.40
2018-04-27T20:22:08.629Z,2.97
2018-04-27T20:24:39.560Z,3.00
2018-04-27T20:27:11.465Z,3.10
2018-04-27T20:29:42.321Z,3.20
2018-04-27T20:32:13.111Z,2.97
2018-04-27T20:34:43.971Z,3.03
2018-04-27T20:37:14.799Z,3.13
2018-04-27T20:39:45.575Z,3.03
2018-04-27T20:42:16.419Z,2.90
2018-04-27T20:44:48.217Z,3.10
2018-04-27T20:47:19.010Z,3.17
2018-04-27T20:49:49.921Z,3.37
2018-04-27T20:52:26.634Z,2.87
2018-04-27T20:54:57.576Z,2.97
2018-04-27T20:57:28.525Z,3.50
2018-04-27T21:00:00.879Z,3.67
2018-04-27T21:02:33.109Z,3.37
2018-04-27T21:05:04.879Z,3.37
2018-04-27T21:07:35.723Z,3.67
2018-04-27T21:10:06.524Z,3.97
2018-04-27T21:12:37.311Z,3.57
2018-04-27T21:15:08.123Z,3.90
2018-04-27T21:17:44.887Z,3.67
2018-04-27T21:20:15.736Z,3.60
2018-04-27T21:22:46.588Z,3.87
2018-04-27T21:25:25.168Z,3.93
2018-04-27T21:27:56.152Z,3.50
2018-04-27T21:30:27.016Z,3.60
2018-04-27T21:32:57.806Z,4.20
2018-04-27T21:35:31.551Z,4.40
2018-04-27T21:38:04.333Z,3.60
2018-04-27T21:40:35.156Z,3.47
2018-04-27T21:43:05.980Z,4.20
2018-04-27T21:45:36.781Z,4.27
2018-04-27T21:48:07.603Z,3.47
2018-04-27T21:50:38.421Z,4.00
2018-04-27T21:53:09.229Z,3.60
2018-04-27T21:55:40.243Z,3.90
2018-04-27T21:58:11.049Z,3.40
2018-04-27T22:00:42.684Z,3.30
2018-04-27T22:03:13.479Z,3.37
2018-04-27T22:08:49.008Z,3.03
2018-04-27T22:11:33.732Z,3.60
2018-04-27T22:14:04.596Z,3.17
2018-04-27T22:16:35.399Z,3.17
2018-04-27T22:19:06.292Z,3.60
2018-04-27T22:21:37.103Z,3.80
2018-04-27T22:24:07.892Z,3.90
2018-04-27T22:26:39.756Z,3.90
2018-04-27T22:29:16.676Z,4.40
2018-04-27T22:31:47.566Z,4.47
2018-04-27T22:34:23.212Z,4.07
2018-04-27T22:36:54.060Z,4.75
2018-04-27T22:39:35.780Z,3.53
2018-04-27T22:42:06.615Z,4.25
2018-04-27T22:47:35.600Z,5.10
2018-04-27T22:50:08.391Z,4.80
2018-04-27T22:52:39.223Z,4.25
2018-04-27T22:55:12.007Z,4.70
2018-04-27T23:00:51.404Z,5.00
2018-04-27T23:03:22.248Z,5.07
2018-04-27T23:05:54.031Z,4.90
2018-04-27T23:08:24.901Z,4.97
2018-04-27T23:11:06.052Z,4.90
2018-04-27T23:13:47.791Z,5.05
2018-04-27T23:16:18.609Z,5.10
2018-04-27T23:18:49.477Z,4.30
2018-04-27T23:21:23.288Z,5.10
2018-04-27T23:23:54.147Z,4.70
2018-04-27T23:26:25.014Z,4.53
2018-04-27T23:28:55.864Z,4.67
2018-04-27T23:31:26.671Z,4.60
2018-04-27T23:33:57.547Z,4.63
2018-04-27T23:36:28.370Z,4.63
2018-04-27T23:38:59.207Z,5.13
2018-04-27T23:41:30.029Z,5.53
2018-04-27T23:44:00.876Z,4.13
2018-04-27T23:46:31.708Z,4.40
2018-04-27T23:49:02.550Z,5.10
2018-04-27T23:51:33.359Z,4.53
2018-04-27T23:54:05.852Z,4.50
2018-04-27T23:56:36.684Z,5.20
2018-04-27T23:59:07.511Z,5.60
